createdAt,value
2022-12-16T00:01:08.413Z,33.70
2022-12-16T00:03:36.935Z,32.90
2022-12-16T00:06:05.132Z,34.20
2022-12-16T00:08:34.903Z,34.60
2022-12-16T00:11:02.933Z,33.80
2022-12-16T00:13:33.888Z,33.60
2022-12-16T00:16:05.106Z,33.30
2022-12-16T00:18:32.718Z,33.30
2022-12-16T00:21:00.725Z,32.77
2022-12-16T00:23:28.869Z,32.43
2022-12-16T00:25:56.956Z,31.93
2022-12-16T00:28:24.996Z,32.60
2022-12-16T00:30:56.221Z,32.10
2022-12-16T00:33:25.888Z,32.60
2022-12-16T00:35:54.733Z,30.87
2022-12-16T00:38:23.658Z,31.77
2022-12-16T00:40:52.150Z,31.40
2022-12-16T00:43:20.630Z,32.27
2022-12-16T00:45:48.941Z,31.63
2022-12-16T00:48:18.072Z,31.00
2022-12-16T00:50:47.287Z,31.60
2022-12-16T00:53:15.162Z,30.80
2022-12-16T00:55:43.200Z,28.90
2022-12-16T00:58:10.770Z,30.83
2022-12-16T01:00:38.671Z,29.43
2022-12-16T01:03:06.849Z,30.77
2022-12-16T01:05:38.336Z,32.67
2022-12-16T01:08:06.167Z,31.00
2022-12-16T01:10:33.824Z,32.37
2022-12-16T01:13:01.388Z,31.80
2022-12-16T01:15:28.943Z,32.00
2022-12-16T01:17:56.522Z,33.67
2022-12-16T01:20:24.128Z,31.63
2022-12-16T01:22:53.041Z,33.30
2022-12-16T01:25:22.451Z,33.07
2022-12-16T01:27:50.236Z,32.57
2022-12-16T01:30:18.177Z,32.17
2022-12-16T01:32:45.733Z,32.10
2022-12-16T01:35:36.417Z,31.20
2022-12-16T01:38:02.417Z,32.00
2022-12-16T01:40:30.855Z,31.90
2022-12-16T01:42:58.396Z,32.33
2022-12-16T01:45:32.950Z,33.93
2022-12-16T01:48:04.772Z,31.50
2022-12-16T01:50:32.982Z,30.83
2022-12-16T01:53:06.461Z,31.37
2022-12-16T01:55:38.304Z,31.03
2022-12-16T01:58:10.239Z,30.47
2022-12-16T02:00:39.507Z,32.10
2022-12-16T02:03:07.704Z,32.67
2022-12-16T02:05:39.417Z,32.13
2022-12-16T02:08:13.985Z,33.70
2022-12-16T02:10:55.504Z,32.27
2022-12-16T02:13:34.784Z,31.93
2022-12-16T02:16:13.885Z,32.77
2022-12-16T02:18:51.883Z,32.00
2022-12-16T02:21:31.545Z,32.07
2022-12-16T02:24:36.288Z,34.40
2022-12-16T02:27:46.397Z,29.60
2022-12-16T02:30:43.231Z,30.30
2022-12-16T02:33:24.535Z,30.00
2022-12-16T02:35:58.365Z,31.70
2022-12-16T02:38:31.777Z,31.97
2022-12-16T02:41:03.834Z,31.40
2022-12-16T02:43:51.448Z,33.27
2022-12-16T02:46:24.756Z,33.13
2022-12-16T02:48:52.378Z,33.13
2022-12-16T02:51:21.229Z,34.90
2022-12-16T02:53:51.496Z,33.13
2022-12-16T02:56:31.132Z,34.33
2022-12-16T02:59:09.168Z,35.13
2022-12-16T03:01:42.474Z,32.83
2022-12-16T03:04:15.237Z,34.60
2022-12-16T03:06:49.145Z,32.93
2022-12-16T03:09:22.174Z,33.67
2022-12-16T03:11:52.277Z,32.00
2022-12-16T03:14:22.781Z,30.40
2022-12-16T03:16:52.681Z,33.23
2022-12-16T03:19:22.607Z,32.17
2022-12-16T03:21:55.880Z,32.63
2022-12-16T03:24:24.639Z,32.93
2022-12-16T03:26:57.574Z,31.73
2022-12-16T03:29:31.037Z,31.57
2022-12-16T03:32:03.777Z,33.17
2022-12-16T03:34:35.868Z,32.20
2022-12-16T03:37:06.225Z,31.17
2022-12-16T03:39:36.248Z,31.47
2022-12-16T03:42:05.325Z,30.80
2022-12-16T03:44:33.224Z,31.20
2022-12-16T03:47:02.172Z,29.50
2022-12-16T03:49:29.745Z,30.47
2022-12-16T03:51:57.318Z,29.30
2022-12-16T03:54:25.709Z,29.30
2022-12-16T03:56:54.228Z,29.60
2022-12-16T03:59:21.844Z,28.70
2022-12-16T04:01:50.036Z,29.17
2022-12-16T04:04:19.577Z,29.33
2022-12-16T04:07:07.157Z,30.47
2022-12-16T04:09:34.695Z,29.90
2022-12-16T04:12:19.920Z,29.07
2022-12-16T04:15:05.057Z,29.50
2022-12-16T04:17:50.320Z,30.37
2022-12-16T04:20:37.774Z,29.93
2022-12-16T04:23:23.503Z,30.93
2022-12-16T04:25:51.420Z,36.77
2022-12-16T04:28:18.975Z,34.80
2022-12-16T04:30:46.609Z,32.33
2022-12-16T04:33:33.960Z,32.40
2022-12-16T04:36:20.797Z,32.37
2022-12-16T04:39:06.096Z,33.40
2022-12-16T04:41:51.624Z,36.73
2022-12-16T04:44:36.940Z,32.20
2022-12-16T04:47:22.112Z,32.00
2022-12-16T04:50:07.451Z,34.27
2022-12-16T04:52:54.132Z,32.57
2022-12-16T04:55:39.208Z,32.33
2022-12-16T04:58:24.356Z,33.70
2022-12-16T05:01:15.139Z,32.33
2022-12-16T05:04:00.599Z,31.33
2022-12-16T05:06:45.561Z,34.30
2022-12-16T05:09:32.157Z,33.97
2022-12-16T05:12:19.703Z,34.40
2022-12-16T05:15:04.740Z,34.77
2022-12-16T05:17:50.087Z,35.70
2022-12-16T05:20:35.285Z,34.47
2022-12-16T05:23:35.495Z,34.30
2022-12-16T05:26:21.930Z,35.10
2022-12-16T05:29:06.731Z,34.03
2022-12-16T05:31:52.004Z,35.10
2022-12-16T05:34:37.255Z,33.33
2022-12-16T05:37:22.206Z,32.47
2022-12-16T05:40:07.401Z,34.17
2022-12-16T05:42:54.087Z,35.67
2022-12-16T05:45:50.673Z,36.70
2022-12-16T05:48:35.500Z,33.30
2022-12-16T05:51:20.733Z,35.00
2022-12-16T05:54:05.989Z,33.33
2022-12-16T05:56:50.951Z,32.40
2022-12-16T05:59:37.504Z,33.97
2022-12-16T06:02:23.419Z,31.93
2022-12-16T06:05:08.777Z,31.63
2022-12-16T06:07:54.080Z,34.60
2022-12-16T06:10:44.825Z,33.93
2022-12-16T06:13:30.415Z,32.77
2022-12-16T06:16:17.011Z,32.87
2022-12-16T06:19:10.393Z,32.67
2022-12-16T06:21:55.572Z,31.00
2022-12-16T06:24:40.804Z,30.93
2022-12-16T06:27:25.201Z,31.57
2022-12-16T06:30:10.497Z,33.03
2022-12-16T06:32:57.120Z,33.10
2022-12-16T06:35:42.057Z,34.07
2022-12-16T06:38:27.328Z,33.07
2022-12-16T06:41:12.715Z,32.73
2022-12-16T06:43:57.999Z,33.10
2022-12-16T06:46:43.004Z,34.37
2022-12-16T06:49:29.557Z,33.30
2022-12-16T06:52:23.289Z,35.40
2022-12-16T06:55:08.221Z,36.13
2022-12-16T06:57:53.533Z,34.77
2022-12-16T07:00:38.970Z,35.63
2022-12-16T07:03:24.058Z,35.60
2022-12-16T07:06:12.923Z,35.37
2022-12-16T07:08:58.452Z,35.80
2022-12-16T07:11:43.700Z,35.97
2022-12-16T07:14:28.984Z,35.67
2022-12-16T07:17:17.327Z,34.03
2022-12-16T07:20:02.876Z,36.10
2022-12-16T07:22:58.454Z,34.33
2022-12-16T07:25:47.996Z,35.20
2022-12-16T07:28:33.140Z,34.70
2022-12-16T07:31:18.262Z,33.70
2022-12-16T07:34:03.556Z,37.13
2022-12-16T07:36:53.882Z,34.33
2022-12-16T07:39:40.380Z,38.97
2022-12-16T07:42:25.587Z,37.97
2022-12-16T07:45:10.645Z,37.80
2022-12-16T07:47:55.873Z,37.67
2022-12-16T07:50:41.229Z,37.80
2022-12-16T07:53:31.085Z,37.47
2022-12-16T07:56:17.852Z,35.67
2022-12-16T07:59:03.084Z,35.20
2022-12-16T08:01:47.585Z,37.17
2022-12-16T08:04:32.941Z,38.40
2022-12-16T08:07:18.280Z,36.63
2022-12-16T08:10:03.189Z,36.10
2022-12-16T08:12:49.758Z,34.20
2022-12-16T08:15:34.668Z,34.10
2022-12-16T08:18:20.203Z,34.93
2022-12-16T08:21:07.872Z,34.60
2022-12-16T08:23:53.815Z,34.63
2022-12-16T08:26:40.023Z,33.70
2022-12-16T08:29:43.676Z,32.10
2022-12-16T08:32:29.989Z,31.20
2022-12-16T08:35:15.024Z,31.70
2022-12-16T08:38:00.236Z,32.70
2022-12-16T08:40:50.792Z,34.20
2022-12-16T08:43:36.643Z,35.97
2022-12-16T08:46:23.736Z,34.03
2022-12-16T08:49:09.020Z,32.20
2022-12-16T08:51:54.200Z,32.13
2022-12-16T08:54:41.007Z,31.20
2022-12-16T08:57:26.192Z,31.50
2022-12-16T09:00:11.497Z,33.07
2022-12-16T09:02:58.302Z,30.93
2022-12-16T09:05:43.814Z,30.73
2022-12-16T09:08:29.024Z,30.87
2022-12-16T09:11:14.276Z,31.03
2022-12-16T09:13:59.676Z,32.77
2022-12-16T09:16:44.738Z,32.30
2022-12-16T09:19:31.505Z,31.00
2022-12-16T09:22:16.750Z,33.00
2022-12-16T09:25:01.743Z,33.33
2022-12-16T09:27:47.101Z,34.37
2022-12-16T09:30:32.231Z,35.20
2022-12-16T09:33:17.493Z,31.97
2022-12-16T09:36:03.719Z,32.83
2022-12-16T09:38:48.225Z,32.57
2022-12-16T09:41:53.869Z,33.27
2022-12-16T09:44:50.645Z,32.50
2022-12-16T09:47:47.975Z,33.60
2022-12-16T09:50:39.744Z,33.00
2022-12-16T09:53:31.667Z,34.30
2022-12-16T09:56:16.976Z,34.03
2022-12-16T09:59:06.373Z,34.60
2022-12-16T10:01:55.907Z,33.93
2022-12-16T10:04:42.012Z,33.27
2022-12-16T10:07:34.772Z,33.40
2022-12-16T10:10:34.780Z,34.83
2022-12-16T10:13:32.002Z,34.67
2022-12-16T10:16:30.570Z,33.87
2022-12-16T10:19:24.496Z,31.67
2022-12-16T10:22:20.231Z,36.30
2022-12-16T10:25:14.219Z,34.77
2022-12-16T10:28:12.464Z,33.00
2022-12-16T10:30:57.706Z,33.33
2022-12-16T10:33:45.970Z,32.43
2022-12-16T10:36:34.619Z,33.33
2022-12-16T10:39:23.528Z,34.43
2022-12-16T10:42:12.340Z,34.73
2022-12-16T10:45:09.231Z,35.57
2022-12-16T10:47:54.476Z,34.60
2022-12-16T10:50:40.241Z,34.50
2022-12-16T10:53:32.462Z,34.20
2022-12-16T10:56:29.721Z,33.20
2022-12-16T10:59:18.981Z,33.17
2022-12-16T11:02:15.108Z,33.10
2022-12-16T11:05:00.981Z,33.53
2022-12-16T11:07:51.958Z,34.20
2022-12-16T11:10:47.429Z,33.10
2022-12-16T11:13:41.431Z,34.33
2022-12-16T11:16:33.554Z,33.07
2022-12-16T11:19:20.317Z,32.83
2022-12-16T11:22:05.694Z,33.33
2022-12-16T11:24:51.351Z,35.53
2022-12-16T11:27:38.570Z,32.37
2022-12-16T11:30:35.468Z,31.33
2022-12-16T11:33:30.202Z,31.40
2022-12-16T11:36:25.837Z,33.10
2022-12-16T11:39:11.492Z,31.80
2022-12-16T11:41:59.660Z,32.60
2022-12-16T11:44:49.285Z,33.33
2022-12-16T11:47:41.197Z,33.50
2022-12-16T11:50:32.001Z,32.77
2022-12-16T11:53:27.957Z,34.17
2022-12-16T11:56:16.410Z,34.63
2022-12-16T11:59:05.076Z,36.57
2022-12-16T12:01:55.442Z,35.37
2022-12-16T12:04:41.466Z,33.97
2022-12-16T12:07:45.365Z,36.23
2022-12-16T12:10:49.948Z,32.97
2022-12-16T12:13:47.716Z,32.37
2022-12-16T12:16:43.303Z,36.30
2022-12-16T12:19:33.624Z,34.37
2022-12-16T12:22:27.624Z,35.20
2022-12-16T12:25:20.698Z,33.80
2022-12-16T12:28:14.013Z,34.83
2022-12-16T12:31:12.912Z,33.20
2022-12-16T12:34:09.144Z,33.37
2022-12-16T12:36:59.010Z,37.23
2022-12-16T12:39:52.734Z,35.93
2022-12-16T12:42:49.562Z,35.00
2022-12-16T12:46:04.549Z,33.87
2022-12-16T12:48:57.550Z,33.07
2022-12-16T12:51:49.463Z,36.37
2022-12-16T12:54:47.336Z,34.60
2022-12-16T12:57:37.093Z,34.00
2022-12-16T13:00:24.332Z,33.80
2022-12-16T13:03:20.542Z,32.70
2022-12-16T13:06:06.441Z,34.70
2022-12-16T13:09:01.790Z,34.47
2022-12-16T13:11:47.089Z,35.73
2022-12-16T13:15:21.160Z,37.77
2022-12-16T13:18:38.487Z,34.93
2022-12-16T13:21:43.784Z,36.40
2022-12-16T13:24:51.465Z,32.93
2022-12-16T13:27:36.904Z,38.97
2022-12-16T13:30:36.660Z,37.53
2022-12-16T13:33:24.979Z,40.90
2022-12-16T13:36:12.515Z,42.10
2022-12-16T13:39:05.003Z,41.97
2022-12-16T13:42:17.256Z,39.47
2022-12-16T13:45:15.704Z,39.97
2022-12-16T13:48:22.717Z,40.33
2022-12-16T13:51:18.069Z,45.20
2022-12-16T13:54:08.263Z,38.87
2022-12-16T13:56:56.721Z,40.37
2022-12-16T13:59:46.854Z,38.93
2022-12-16T14:02:48.297Z,37.67
2022-12-16T14:05:37.611Z,37.57
2022-12-16T14:08:24.791Z,39.10
2022-12-16T14:11:17.452Z,37.87
2022-12-16T14:14:17.225Z,35.07
2022-12-16T14:17:10.052Z,34.00
2022-12-16T14:20:12.512Z,36.80
2022-12-16T14:23:14.912Z,36.67
2022-12-16T14:26:15.764Z,38.70
2022-12-16T14:29:05.048Z,272.97
2022-12-16T14:31:55.451Z,172.43
2022-12-16T14:34:45.142Z,601.63
2022-12-16T14:37:34.852Z,50.50
2022-12-16T14:40:20.698Z,38.23
2022-12-16T14:43:12.899Z,62.70
2022-12-16T14:46:06.343Z,88.80
2022-12-16T14:48:54.060Z,38.20
2022-12-16T14:51:48.275Z,40.00
2022-12-16T14:54:39.732Z,42.43
2022-12-16T14:57:30.600Z,41.10
2022-12-16T15:00:20.589Z,56.37
2022-12-16T15:03:09.115Z,53.67
2022-12-16T15:05:56.805Z,44.07
2022-12-16T15:08:44.417Z,44.73
2022-12-16T15:11:34.023Z,52.13
2022-12-16T15:14:20.958Z,50.20
2022-12-16T15:17:07.668Z,45.90
2022-12-16T15:20:03.365Z,39.37
2022-12-16T15:22:49.350Z,37.77
2022-12-16T15:25:41.112Z,60.87
2022-12-16T15:28:42.669Z,54.80
2022-12-16T15:31:42.122Z,45.80
2022-12-16T15:34:42.760Z,35.27
2022-12-16T15:37:40.259Z,56.50
2022-12-16T15:40:41.532Z,50.20
2022-12-16T15:43:39.809Z,38.87
2022-12-16T15:46:25.488Z,35.30
2022-12-16T15:49:10.728Z,37.53
2022-12-16T15:52:03.503Z,36.10
2022-12-16T15:54:48.958Z,36.50
2022-12-16T15:57:46.773Z,34.53
2022-12-16T16:00:42.220Z,37.30
2022-12-16T16:03:40.501Z,42.53
2022-12-16T16:06:35.889Z,51.67
2022-12-16T16:09:30.198Z,48.60
2022-12-16T16:12:15.503Z,40.73
2022-12-16T16:15:01.832Z,36.80
2022-12-16T16:17:47.144Z,36.73
2022-12-16T16:20:33.437Z,37.13
2022-12-16T16:23:18.631Z,56.43
2022-12-16T16:26:05.149Z,127.10
2022-12-16T16:28:50.452Z,55.20
2022-12-16T16:31:36.902Z,45.27
2022-12-16T16:34:22.322Z,42.73
2022-12-16T16:37:11.437Z,44.67
2022-12-16T16:39:56.128Z,39.90
2022-12-16T16:42:41.481Z,106.13
2022-12-16T16:45:24.007Z,46.93
2022-12-16T16:48:25.256Z,43.80
2022-12-16T16:51:14.624Z,100.80
2022-12-16T16:54:00.320Z,49.13
2022-12-16T16:56:47.189Z,49.63
2022-12-16T16:59:32.571Z,81.07
2022-12-16T17:02:17.946Z,53.63
2022-12-16T17:05:04.706Z,46.77
2022-12-16T17:07:53.751Z,45.47
2022-12-16T17:10:39.247Z,44.53
2022-12-16T17:13:24.557Z,52.03
2022-12-16T17:16:09.658Z,69.40
2022-12-16T17:18:54.603Z,65.67
2022-12-16T17:21:40.910Z,80.53
2022-12-16T17:24:26.136Z,60.37
2022-12-16T17:27:11.244Z,46.80
2022-12-16T17:29:58.756Z,48.93
2022-12-16T17:32:43.760Z,51.97
2022-12-16T17:35:30.124Z,41.80
2022-12-16T17:38:16.643Z,40.43
2022-12-16T17:41:01.968Z,51.40
2022-12-16T17:43:46.992Z,50.80
2022-12-16T17:46:32.335Z,52.87
2022-12-16T17:49:17.406Z,48.73
2022-12-16T17:52:02.918Z,45.77
2022-12-16T17:54:45.797Z,44.20
2022-12-16T17:57:31.006Z,44.50
2022-12-16T18:00:16.372Z,44.57
2022-12-16T18:03:01.658Z,252.83
2022-12-16T18:05:46.993Z,124.27
2022-12-16T18:08:32.348Z,33.87
2022-12-16T18:11:18.761Z,33.90
2022-12-16T18:14:03.734Z,36.87
2022-12-16T18:16:49.034Z,42.90
2022-12-16T18:19:35.015Z,53.63
2022-12-16T18:22:20.649Z,48.87
2022-12-16T18:25:05.997Z,45.67
2022-12-16T18:27:54.148Z,40.67
2022-12-16T18:30:39.985Z,45.27
2022-12-16T18:33:25.287Z,96.17
2022-12-16T18:36:10.563Z,138.13
2022-12-16T18:38:55.737Z,112.90
2022-12-16T18:41:41.496Z,100.20
2022-12-16T18:44:31.536Z,88.03
2022-12-16T18:47:16.827Z,73.07
2022-12-16T18:50:04.301Z,68.57
2022-12-16T18:52:49.293Z,53.97
2022-12-16T18:55:34.537Z,55.13
2022-12-16T18:58:50.836Z,46.43
2022-12-16T19:01:28.498Z,53.47
2022-12-16T19:04:11.057Z,49.37
2022-12-16T19:06:56.369Z,44.07
2022-12-16T19:09:41.603Z,45.67
2022-12-16T19:12:26.776Z,60.07
2022-12-16T19:15:11.888Z,52.73
2022-12-16T19:17:58.458Z,45.17
2022-12-16T19:20:44.339Z,49.13
2022-12-16T19:23:32.700Z,47.67
2022-12-16T19:26:19.074Z,43.20
2022-12-16T19:29:04.440Z,39.47
2022-12-16T19:31:49.930Z,42.30
2022-12-16T19:34:36.443Z,41.07
2022-12-16T19:37:21.680Z,40.17
2022-12-16T19:40:06.809Z,40.57
2022-12-16T19:42:51.824Z,39.20
2022-12-16T19:45:37.101Z,43.40
2022-12-16T19:48:23.988Z,45.33
2022-12-16T19:51:16.543Z,52.47
2022-12-16T19:54:02.093Z,45.27
2022-12-16T19:56:55.282Z,48.57
2022-12-16T19:59:40.697Z,59.80
2022-12-16T20:02:29.525Z,46.80
2022-12-16T20:05:14.763Z,44.57
2022-12-16T20:08:01.183Z,50.73
2022-12-16T20:10:46.450Z,53.50
2022-12-16T20:13:32.114Z,48.17
2022-12-16T20:16:20.362Z,56.97
2022-12-16T20:19:05.628Z,49.20
2022-12-16T20:21:52.499Z,45.53
2022-12-16T20:24:43.394Z,41.00
2022-12-16T20:27:28.653Z,34.70
2022-12-16T20:30:14.011Z,34.53
2022-12-16T20:32:58.993Z,119.27
2022-12-16T20:35:44.445Z,135.33
2022-12-16T20:38:29.709Z,112.17
2022-12-16T20:41:20.266Z,234.57
2022-12-16T20:44:05.632Z,171.47
2022-12-16T20:46:50.957Z,78.30
2022-12-16T20:49:36.666Z,54.07
2022-12-16T20:52:21.750Z,42.07
2022-12-16T20:55:06.739Z,42.70
2022-12-16T20:57:53.397Z,63.43
2022-12-16T21:00:41.680Z,164.90
2022-12-16T21:03:27.728Z,239.10
2022-12-16T21:06:13.597Z,141.37
2022-12-16T21:08:58.970Z,145.23
2022-12-16T21:11:52.444Z,205.83
2022-12-16T21:14:43.143Z,88.27
2022-12-16T21:17:28.254Z,136.37
2022-12-16T21:20:13.697Z,158.57
2022-12-16T21:22:58.653Z,165.43
2022-12-16T21:25:43.944Z,117.43
2022-12-16T21:28:30.204Z,95.07
2022-12-16T21:31:17.656Z,89.03
2022-12-16T21:34:02.920Z,103.80
2022-12-16T21:36:48.069Z,92.17
2022-12-16T21:39:33.445Z,66.07
2022-12-16T21:42:18.641Z,133.07
2022-12-16T21:45:03.909Z,191.13
2022-12-16T21:47:46.727Z,144.60
2022-12-16T21:50:32.956Z,175.63
2022-12-16T21:53:18.369Z,94.73
2022-12-16T21:56:10.130Z,69.67
2022-12-16T21:58:55.325Z,88.03
2022-12-16T22:01:52.151Z,139.57
2022-12-16T22:04:38.761Z,215.03
2022-12-16T22:07:24.084Z,162.63
2022-12-16T22:10:09.416Z,412.80
2022-12-16T22:12:56.305Z,396.53
2022-12-16T22:15:41.836Z,328.07
2022-12-16T22:18:27.029Z,110.47
2022-12-16T22:21:17.177Z,204.80
2022-12-16T22:24:02.549Z,164.00
2022-12-16T22:26:47.698Z,297.63
2022-12-16T22:29:33.153Z,197.70
2022-12-16T22:32:18.870Z,365.30
2022-12-16T22:35:04.100Z,287.87
2022-12-16T22:37:50.447Z,65.53
2022-12-16T22:40:35.633Z,196.73
2022-12-16T22:43:20.484Z,157.63
2022-12-16T22:46:05.920Z,265.73
2022-12-16T22:48:51.184Z,149.93
2022-12-16T22:51:37.012Z,193.33
2022-12-16T22:54:23.505Z,135.67
2022-12-16T22:57:08.880Z,233.57
2022-12-16T22:59:54.568Z,157.20
2022-12-16T23:02:41.882Z,168.63
2022-12-16T23:08:32.213Z,107.57
2022-12-16T23:11:18.806Z,175.70
2022-12-16T23:14:03.768Z,164.17
2022-12-16T23:16:49.160Z,158.53
2022-12-16T23:19:34.411Z,326.23
2022-12-16T23:22:19.479Z,263.37
2022-12-16T23:25:04.630Z,164.67
2022-12-16T23:27:59.297Z,148.87
2022-12-16T23:30:44.717Z,192.03
2022-12-16T23:33:29.759Z,193.87
2022-12-16T23:36:14.952Z,164.87
2022-12-16T23:39:00.257Z,165.17
2022-12-16T23:41:45.212Z,261.77
2022-12-16T23:44:31.740Z,110.70
2022-12-16T23:47:16.874Z,156.07
2022-12-16T23:50:02.298Z,104.03
2022-12-16T23:52:47.551Z,123.97
2022-12-16T23:55:32.601Z,86.27
2022-12-16T23:58:18.444Z,110.00
